Skovorodino, Russia
Current Conditions -  °F | °C
As of 1:00 PM on Monday 20 Oct 2014 (Local Time) from UHBB Reporting Station
Broken Clouds Broken Clouds  
Wind Chill: 20°   Ceiling: 3300
Heat Index: 30°   Visibility: 6mi
Dew Point: -2°   Wind: 13mph
Humidity: 25%   Direction: 280°W
Pressure: 30.03"   Gusts: NA
Location:  53.98°N, 123.92°E
Report Text: UHBB 200400Z 28006MPS 240V330 9999 BKN033CB M01/M19 Q1017 TEMPO29006G11MPS RMK QFE745/0993 36090060
Loading
Personal Weather Stations






























Interactive Weather Map
Tropical Storm Tracking
New forecast layout! Learn more

10-Day Weather Forecast

Advertisements
Track Severe Weather on mobile